createdAt,value
2019-02-18T00:28:53.903Z,86.85
2019-02-18T00:28:54.484Z,87.51
2019-02-18T00:28:55.071Z,87.04
2019-02-18T00:28:55.670Z,87.13
2019-02-18T00:28:56.273Z,86.85
2019-02-18T00:28:56.871Z,87.23
2019-02-18T00:28:57.470Z,87.04
2019-02-18T00:28:58.070Z,87.23
2019-02-18T00:28:58.670Z,87.23
2019-02-18T00:28:59.270Z,86.85
2019-02-18T00:28:59.869Z,87.04
2019-02-18T00:29:00.470Z,87.23
2019-02-18T00:32:03.337Z,87.23
2019-02-18T00:32:03.906Z,87.41
2019-02-18T00:32:04.507Z,87.32
2019-02-18T00:32:05.107Z,87.41
2019-02-18T00:32:05.708Z,87.32
2019-02-18T00:32:06.303Z,87.23
2019-02-18T00:32:06.903Z,86.94
2019-02-18T00:32:07.502Z,87.23
2019-02-18T00:32:08.103Z,87.23
2019-02-18T00:32:08.702Z,86.94
2019-02-18T00:32:09.301Z,87.23
2019-02-18T00:32:09.902Z,87.32
2019-02-18T00:33:49.005Z,87.32
2019-02-18T00:33:49.576Z,87.23
2019-02-18T00:33:50.175Z,87.32
2019-02-18T00:33:50.776Z,87.13
2019-02-18T00:33:51.376Z,87.13
2019-02-18T00:33:51.979Z,87.13
2019-02-18T00:33:52.575Z,87.13
2019-02-18T00:33:53.175Z,87.23
2019-02-18T00:33:53.777Z,87.13
2019-02-18T00:33:54.374Z,87.32
2019-02-18T00:33:54.973Z,87.23
2019-02-18T00:33:55.573Z,87.23
2019-02-18T00:33:56.174Z,87.32
2019-02-18T00:33:56.780Z,87.13
2019-02-18T00:33:57.373Z,87.23
2019-02-18T00:33:57.973Z,86.56
2019-02-18T00:36:50.285Z,86.94
2019-02-18T00:36:50.855Z,87.13
2019-02-18T00:36:51.453Z,86.75
2019-02-18T00:36:52.053Z,86.85
2019-02-18T00:36:52.654Z,86.66
2019-02-18T00:36:53.256Z,87.04
2019-02-18T00:36:53.855Z,86.94
2019-02-18T00:36:54.452Z,87.41
2019-02-18T00:36:55.050Z,86.56
2019-02-18T00:36:55.650Z,86.85
2019-02-18T00:36:56.251Z,86.85
2019-02-18T00:36:56.851Z,86.94
2019-02-18T00:37:50.875Z,86.75
2019-02-18T00:37:51.449Z,86.66
2019-02-18T00:37:52.049Z,86.75
2019-02-18T00:37:52.651Z,87.32
2019-02-18T00:37:53.249Z,86.94
2019-02-18T00:37:53.850Z,86.75
2019-02-18T00:37:54.447Z,86.75
2019-02-18T00:37:55.047Z,86.85
2019-02-18T00:38:49.042Z,86.75
2019-02-18T00:38:49.612Z,87.13
2019-02-18T00:38:50.210Z,86.85
2019-02-18T00:38:50.811Z,86.75
2019-02-18T00:38:51.411Z,86.85
2019-02-18T00:38:52.011Z,86.94
2019-02-18T00:38:52.609Z,86.75
2019-02-18T00:39:47.101Z,87.04
2019-02-18T00:39:47.673Z,87.04
2019-02-18T00:39:48.273Z,87.04
2019-02-18T00:39:48.872Z,87.13
2019-02-18T00:39:49.472Z,87.04
2019-02-18T00:39:50.074Z,86.75
2019-02-18T00:39:50.672Z,86.85
2019-02-18T00:39:51.271Z,87.23
2019-02-18T00:41:41.789Z,86.66
2019-02-18T00:41:42.363Z,86.85
2019-02-18T00:41:42.964Z,86.94
2019-02-18T00:41:43.561Z,86.75
2019-02-18T00:41:44.161Z,86.75
2019-02-18T00:41:44.760Z,86.94
2019-02-18T00:41:45.360Z,86.85
2019-02-18T00:41:45.959Z,86.94
2019-02-18T00:41:46.559Z,86.85
2019-02-18T00:41:49.224Z,86.85
2019-02-18T00:41:49.358Z,86.75
2019-02-18T00:41:49.375Z,86.94
2019-02-18T00:41:49.403Z,86.85
2019-02-18T00:43:35.553Z,86.47
2019-02-18T00:43:36.130Z,86.37
2019-02-18T00:43:36.728Z,86.47
2019-02-18T00:44:30.240Z,86.09
2019-02-18T00:44:30.815Z,85.80
2019-02-18T00:44:31.421Z,86.09
2019-02-18T00:44:32.017Z,86.09
2019-02-18T00:44:32.609Z,85.99
2019-02-18T00:44:33.209Z,86.09
2019-02-18T00:44:33.814Z,86.09
2019-02-18T00:44:34.412Z,85.99
2019-02-18T00:45:54.001Z,86.09
2019-02-18T00:45:54.574Z,85.90
2019-02-18T00:45:55.175Z,85.80
2019-02-18T00:45:55.774Z,86.18
2019-02-18T00:45:56.381Z,85.90
2019-02-18T00:45:56.978Z,86.09
2019-02-18T00:45:57.573Z,85.80
2019-02-18T00:45:58.171Z,86.09
2019-02-18T00:45:58.774Z,85.90
2019-02-18T00:45:59.373Z,86.09
2019-02-18T00:45:59.974Z,85.99
2019-02-18T00:46:00.581Z,86.37
2019-02-18T00:46:01.170Z,85.71
2019-02-18T00:46:01.770Z,85.80
2019-02-18T00:46:02.369Z,85.99
2019-02-18T00:46:56.363Z,86.09
2019-02-18T00:46:56.938Z,85.90
2019-02-18T00:46:57.538Z,86.09
2019-02-18T00:46:58.138Z,86.28
2019-02-18T00:46:58.740Z,85.90
2019-02-18T00:46:59.339Z,86.22
2019-02-18T00:46:59.936Z,86.28
2019-02-18T00:47:00.539Z,85.80
2019-02-18T00:47:54.526Z,85.47
2019-02-18T00:47:55.101Z,85.94
2019-02-18T00:47:55.702Z,85.57
2019-02-18T00:47:56.302Z,86.04
2019-02-18T00:47:56.900Z,85.52
2019-02-18T00:47:57.500Z,85.94
2019-02-18T00:47:58.103Z,85.61
2019-02-18T00:48:56.581Z,85.66
2019-02-18T00:48:57.157Z,85.75
2019-02-18T00:48:57.756Z,85.71
2019-02-18T00:48:58.355Z,85.66
2019-02-18T00:48:58.955Z,85.75
2019-02-18T00:48:59.555Z,85.33
2019-02-18T00:49:00.157Z,85.75
2019-02-18T00:49:00.758Z,85.66
2019-02-18T00:49:01.361Z,85.71
2019-02-18T00:49:01.954Z,85.66
2019-02-18T00:49:02.554Z,85.57
2019-02-18T00:49:03.157Z,85.75
2019-02-18T00:49:03.755Z,85.66
2019-02-18T00:49:04.353Z,85.33
2019-02-18T00:49:04.954Z,85.57
2019-02-18T00:49:05.554Z,85.38
2019-02-18T00:49:06.152Z,85.66
2019-02-18T00:50:03.141Z,85.38
2019-02-18T00:50:03.721Z,85.38
2019-02-18T00:50:04.317Z,85.38
2019-02-18T00:50:58.855Z,85.38
2019-02-18T00:50:59.423Z,85.47
2019-02-18T00:51:00.022Z,85.57
2019-02-18T00:51:00.622Z,85.38
2019-02-18T00:51:01.222Z,85.38
2019-02-18T00:51:01.824Z,85.47
2019-02-18T00:51:02.425Z,85.47
2019-02-18T00:51:03.022Z,85.28
2019-02-18T00:52:09.606Z,85.47
2019-02-18T00:52:10.182Z,85.47
2019-02-18T00:52:10.787Z,85.47
2019-02-18T00:53:05.833Z,85.19
2019-02-18T00:53:06.402Z,85.47
2019-02-18T00:53:07.002Z,85.94
2019-02-18T00:53:07.600Z,85.85
2019-02-18T00:53:08.200Z,85.85
2019-02-18T00:53:08.799Z,85.85
2019-02-18T00:55:31.614Z,85.38
2019-02-18T00:55:32.203Z,85.85
2019-02-18T00:55:32.785Z,85.85
2019-02-18T00:55:33.385Z,85.85
2019-02-18T00:55:33.985Z,85.85
2019-02-18T00:55:34.589Z,85.75
2019-02-18T00:55:35.184Z,85.75
2019-02-18T00:55:35.784Z,85.85
2019-02-18T00:55:36.382Z,85.85
2019-02-18T00:55:36.983Z,85.85
2019-02-18T00:55:37.582Z,85.85
2019-02-18T00:55:38.187Z,85.38
2019-02-18T00:56:32.268Z,85.47
2019-02-18T00:56:32.842Z,85.28
2019-02-18T00:56:33.448Z,85.28
2019-02-18T00:56:34.041Z,85.75
2019-02-18T00:56:34.640Z,85.75
2019-02-18T00:56:35.242Z,85.75
2019-02-18T00:56:35.840Z,85.28
2019-02-18T00:56:36.441Z,85.66
2019-02-18T00:57:30.433Z,85.28
2019-02-18T00:57:31.008Z,85.66
2019-02-18T00:57:31.605Z,85.57
2019-02-18T00:57:32.203Z,85.57
2019-02-18T00:57:32.803Z,85.66
2019-02-18T00:57:33.404Z,85.57
2019-02-18T00:57:34.003Z,85.47
2019-02-18T00:58:30.542Z,85.47
2019-02-18T00:58:31.123Z,85.47
2019-02-18T00:58:31.712Z,85.47
2019-02-18T00:59:25.738Z,85.38
2019-02-18T00:59:26.310Z,85.38
2019-02-18T00:59:26.909Z,85.75
2019-02-18T00:59:27.508Z,85.66
2019-02-18T00:59:28.107Z,85.66
2019-02-18T00:59:28.710Z,85.38
2019-02-18T00:59:29.309Z,85.75
2019-02-18T01:00:25.846Z,85.85
2019-02-18T01:00:26.418Z,85.57
2019-02-18T01:00:27.017Z,85.75
2019-02-18T01:02:29.328Z,85.75
2019-02-18T01:02:29.898Z,85.85
2019-02-18T01:02:30.497Z,85.85
2019-02-18T01:02:31.099Z,85.75
2019-02-18T01:02:31.695Z,85.75
2019-02-18T01:02:32.296Z,85.75
2019-02-18T01:02:32.895Z,85.38
2019-02-18T01:02:33.494Z,85.85
2019-02-18T01:02:34.097Z,85.57
2019-02-18T01:02:34.696Z,85.57
2019-02-18T01:03:45.940Z,86.13
2019-02-18T01:03:46.509Z,86.13
2019-02-18T01:03:47.109Z,86.13
2019-02-18T01:03:47.709Z,86.04
2019-02-18T01:03:48.310Z,86.13
2019-02-18T01:03:48.909Z,86.13
2019-02-18T01:03:49.507Z,85.85
2019-02-18T01:03:50.108Z,86.04
2019-02-18T01:03:50.707Z,86.13
2019-02-18T01:03:51.308Z,85.94
2019-02-18T01:03:51.917Z,86.13
2019-02-18T01:03:52.507Z,85.94
2019-02-18T01:03:53.108Z,85.94
2019-02-18T01:03:53.707Z,85.85
2019-02-18T01:03:54.320Z,86.51
2019-02-18T01:03:54.907Z,85.94
2019-02-18T01:05:27.829Z,85.85
2019-02-18T01:05:28.399Z,85.94
2019-02-18T01:05:29.001Z,85.85
2019-02-18T01:05:29.597Z,85.94
2019-02-18T01:05:30.200Z,85.85
2019-02-18T01:05:30.799Z,86.04
2019-02-18T01:05:31.397Z,85.85
2019-02-18T01:05:31.998Z,85.85
2019-02-18T01:06:33.057Z,85.94
2019-02-18T01:06:33.627Z,86.22
2019-02-18T01:06:34.227Z,86.22
2019-02-18T01:06:34.827Z,86.22
2019-02-18T01:06:35.426Z,86.22
2019-02-18T01:06:36.029Z,86.13
2019-02-18T01:06:36.626Z,86.13
2019-02-18T01:06:37.225Z,86.22
2019-02-18T01:06:37.826Z,86.13
2019-02-18T01:06:38.426Z,86.04
2019-02-18T01:06:39.025Z,86.13
2019-02-18T01:06:39.625Z,86.04
2019-02-18T01:07:47.703Z,86.70
2019-02-18T01:07:48.278Z,86.41
2019-02-18T01:07:48.877Z,86.60
2019-02-18T01:07:49.477Z,86.70
2019-02-18T01:07:50.078Z,86.70
2019-02-18T01:07:50.677Z,86.22
2019-02-18T01:07:51.275Z,86.70
2019-02-18T01:07:51.879Z,86.98
2019-02-18T01:07:52.476Z,86.22
2019-02-18T01:07:53.075Z,86.32
2019-02-18T01:07:53.676Z,86.32
2019-02-18T01:07:54.274Z,86.22
2019-02-18T01:07:54.883Z,86.98
2019-02-18T01:07:55.473Z,86.98
2019-02-18T01:07:56.072Z,86.79
2019-02-18T01:07:56.672Z,86.32
2019-02-18T01:07:57.272Z,86.79
2019-02-18T01:10:56.443Z,87.36
2019-02-18T01:10:56.911Z,87.55
2019-02-18T01:10:57.505Z,87.36
2019-02-18T01:12:31.048Z,87.46
2019-02-18T01:12:31.623Z,87.46
2019-02-18T01:12:32.222Z,87.36
2019-02-18T01:12:32.819Z,87.46
2019-02-18T01:12:33.421Z,87.46
2019-02-18T01:12:34.026Z,87.46
2019-02-18T01:12:34.619Z,87.46
2019-02-18T01:12:35.219Z,87.84
2019-02-18T01:15:14.907Z,87.65
2019-02-18T01:15:15.407Z,87.74
2019-02-18T01:15:15.999Z,87.46
2019-02-18T01:15:16.601Z,87.55
2019-02-18T01:15:17.200Z,87.65
2019-02-18T01:15:17.800Z,87.46
2019-02-18T01:16:16.330Z,87.55
2019-02-18T01:16:16.909Z,87.46
2019-02-18T01:16:17.524Z,87.36
2019-02-18T01:16:18.102Z,87.55
2019-02-18T01:16:18.703Z,87.27
2019-02-18T01:16:19.304Z,87.36
2019-02-18T01:16:19.902Z,87.65
2019-02-18T01:16:20.504Z,87.46
2019-02-18T01:16:21.105Z,87.65
2019-02-18T01:16:21.707Z,87.36
2019-02-18T01:16:22.302Z,87.46
2019-02-18T01:16:22.907Z,87.46
2019-02-18T01:16:23.501Z,87.36
2019-02-18T01:16:24.100Z,87.36
2019-02-18T01:16:24.703Z,87.55
2019-02-18T01:16:25.299Z,87.36
2019-02-18T01:18:33.355Z,88.21
2019-02-18T01:18:33.919Z,88.21
2019-02-18T01:18:34.517Z,88.21
2019-02-18T01:18:35.119Z,88.31
2019-02-18T01:18:35.714Z,88.31
2019-02-18T01:18:36.312Z,88.31
2019-02-18T01:18:36.913Z,88.31
2019-02-18T01:18:37.512Z,88.31
2019-02-18T01:18:38.114Z,88.31
2019-02-18T01:18:38.711Z,88.31
2019-02-18T01:18:39.313Z,88.40
2019-02-18T01:18:39.913Z,88.21
2019-02-18T01:18:40.512Z,88.21
2019-02-18T01:18:41.114Z,88.21
2019-02-18T01:18:41.724Z,88.49
2019-02-18T01:18:42.312Z,88.21
2019-02-18T01:18:42.911Z,88.31
2019-02-18T01:19:36.421Z,88.49
2019-02-18T01:19:36.996Z,88.49
2019-02-18T01:19:37.593Z,88.31
2019-02-18T01:19:38.195Z,88.40
2019-02-18T01:19:38.796Z,88.49
2019-02-18T01:19:39.394Z,88.31
2019-02-18T01:19:39.994Z,88.49
2019-02-18T01:19:40.597Z,88.59
2019-02-18T01:20:35.100Z,89.06
2019-02-18T01:20:35.670Z,89.06
2019-02-18T01:20:36.270Z,89.06
2019-02-18T01:20:36.870Z,88.97
2019-02-18T01:20:37.473Z,88.68
2019-02-18T01:20:38.069Z,88.97
2019-02-18T01:20:38.668Z,88.78
2019-02-18T01:20:39.270Z,89.06
2019-02-18T01:21:47.799Z,89.44
2019-02-18T01:21:48.375Z,89.35
2019-02-18T01:21:48.974Z,89.44
2019-02-18T01:21:49.574Z,89.35
2019-02-18T01:21:50.174Z,89.44
2019-02-18T01:21:50.773Z,89.44
2019-02-18T01:21:51.373Z,89.44
2019-02-18T01:21:51.974Z,89.44
2019-02-18T01:21:52.575Z,89.35
2019-02-18T01:21:53.172Z,89.44
2019-02-18T01:21:53.772Z,89.44
2019-02-18T01:21:54.371Z,89.25
2019-02-18T01:21:54.970Z,89.44
2019-02-18T01:21:55.578Z,89.35
2019-02-18T01:21:56.171Z,89.35
2019-02-18T01:21:56.773Z,89.25
2019-02-18T01:23:17.810Z,89.54
2019-02-18T01:23:18.384Z,89.16
2019-02-18T01:23:18.985Z,89.25
2019-02-18T01:23:19.584Z,89.25
2019-02-18T01:23:20.185Z,89.16
2019-02-18T01:23:20.785Z,88.97
2019-02-18T01:23:21.383Z,89.25
2019-02-18T01:23:21.983Z,89.25
2019-02-18T01:23:22.582Z,89.25
2019-02-18T01:23:23.183Z,89.25
2019-02-18T01:23:23.784Z,89.54
2019-02-18T01:23:24.381Z,89.16
2019-02-18T01:24:58.982Z,89.54
2019-02-18T01:24:59.556Z,89.54
2019-02-18T01:25:00.320Z,89.25
2019-02-18T01:25:00.756Z,89.35
2019-02-18T01:25:01.357Z,89.44
2019-02-18T01:25:01.967Z,89.35
2019-02-18T01:25:55.515Z,90.30
2019-02-18T01:25:56.083Z,90.11
2019-02-18T01:25:56.684Z,90.20
2019-02-18T01:25:57.287Z,90.20
2019-02-18T01:25:57.886Z,90.11
2019-02-18T01:25:58.482Z,90.20
2019-02-18T01:25:59.084Z,89.82
2019-02-18T01:25:59.686Z,90.11
2019-02-18T01:27:47.235Z,90.39
2019-02-18T01:29:08.232Z,90.39
2019-02-18T01:29:08.800Z,90.30
2019-02-18T01:29:09.400Z,90.39
2019-02-18T01:29:10.005Z,90.11
2019-02-18T01:29:10.600Z,90.30
2019-02-18T01:29:11.199Z,90.11
2019-02-18T01:29:11.803Z,90.39
2019-02-18T01:29:12.398Z,90.67
2019-02-18T01:29:13.005Z,90.30
2019-02-18T01:29:13.598Z,90.39
2019-02-18T01:29:14.197Z,90.30
2019-02-18T01:29:14.803Z,90.39
2019-02-18T01:30:08.855Z,90.86
2019-02-18T01:30:09.422Z,90.86
2019-02-18T01:30:10.021Z,90.39
2019-02-18T01:30:10.621Z,90.77
2019-02-18T01:30:11.220Z,90.77
2019-02-18T01:30:11.821Z,90.86
2019-02-18T01:30:12.419Z,90.86
2019-02-18T01:31:13.462Z,90.30
2019-02-18T01:31:14.099Z,90.77
2019-02-18T01:31:14.636Z,90.96
2019-02-18T01:31:15.237Z,90.77
2019-02-18T01:31:15.838Z,90.86
2019-02-18T01:31:16.436Z,90.67
2019-02-18T01:31:17.038Z,90.67
2019-02-18T01:31:17.636Z,90.67
2019-02-18T01:31:18.237Z,90.30
2019-02-18T01:31:18.835Z,90.67
2019-02-18T01:31:19.435Z,90.77
2019-02-18T01:31:20.035Z,90.86
2019-02-18T01:32:15.006Z,91.15
2019-02-18T01:32:15.581Z,91.24
2019-02-18T01:32:16.179Z,91.24
2019-02-18T01:32:16.781Z,91.15
2019-02-18T01:32:17.379Z,91.24
2019-02-18T01:32:17.989Z,91.15
2019-02-18T01:33:44.094Z,91.72
2019-02-18T01:33:44.668Z,91.53
2019-02-18T01:33:45.269Z,91.72
2019-02-18T01:33:45.867Z,91.72
2019-02-18T01:33:46.466Z,91.62
2019-02-18T01:34:43.485Z,91.81
2019-02-18T01:34:44.061Z,91.81
2019-02-18T01:34:44.660Z,91.81
2019-02-18T01:35:39.193Z,91.81
2019-02-18T01:35:39.768Z,91.81
2019-02-18T01:35:40.367Z,91.72
2019-02-18T01:35:40.966Z,91.81
2019-02-18T01:35:41.566Z,91.72
2019-02-18T01:35:42.165Z,91.72
2019-02-18T01:35:42.765Z,91.53
2019-02-18T01:35:43.365Z,91.72
2019-02-18T01:36:37.870Z,90.96
2019-02-18T01:36:38.445Z,90.67
2019-02-18T01:36:39.044Z,90.58
2019-02-18T01:36:39.643Z,90.96
2019-02-18T01:36:40.241Z,90.96
2019-02-18T01:36:40.841Z,90.96
2019-02-18T01:36:41.442Z,90.77
2019-02-18T01:36:42.044Z,90.77
2019-02-18T01:38:45.133Z,90.77
2019-02-18T01:38:45.675Z,91.24
2019-02-18T01:38:46.234Z,90.77
2019-02-18T01:38:46.831Z,91.24
2019-02-18T01:38:47.431Z,91.15
2019-02-18T01:38:48.039Z,91.24
2019-02-18T01:38:48.627Z,91.24
2019-02-18T01:38:49.228Z,91.15
2019-02-18T01:38:49.828Z,91.15
2019-02-18T01:38:50.431Z,91.24
2019-02-18T01:38:51.026Z,91.24
2019-02-18T01:39:52.536Z,91.24
2019-02-18T01:39:53.106Z,91.19
2019-02-18T01:39:53.707Z,91.38
2019-02-18T01:39:54.306Z,91.53
2019-02-18T01:39:54.904Z,91.24
2019-02-18T01:39:55.504Z,91.43
2019-02-18T01:39:56.108Z,91.34
2019-02-18T01:39:56.707Z,91.34
2019-02-18T01:39:57.305Z,91.34
2019-02-18T01:39:57.905Z,91.38
2019-02-18T01:39:58.505Z,91.15
2019-02-18T01:39:59.103Z,91.34
2019-02-18T01:41:46.413Z,91.05
2019-02-18T01:41:46.979Z,91.15
2019-02-18T01:41:47.584Z,91.19
2019-02-18T01:41:48.177Z,91.29
2019-02-18T01:41:48.822Z,90.96
2019-02-18T01:41:49.377Z,91.00
2019-02-18T01:42:44.365Z,90.77
2019-02-18T01:42:44.936Z,90.86
2019-02-18T01:42:45.538Z,90.25
2019-02-18T01:42:46.135Z,90.58
2019-02-18T01:42:46.734Z,90.34
2019-02-18T01:42:47.334Z,90.34
2019-02-18T01:43:52.459Z,90.44
2019-02-18T01:43:53.035Z,90.25
2019-02-18T01:43:53.639Z,90.53
2019-02-18T01:43:54.233Z,90.15
2019-02-18T01:43:54.832Z,90.25
2019-02-18T01:43:55.433Z,90.63
2019-02-18T01:43:56.032Z,90.25
2019-02-18T01:43:56.632Z,90.25
2019-02-18T01:45:37.934Z,91.29
2019-02-18T01:45:38.508Z,91.29
2019-02-18T01:45:39.107Z,91.29
2019-02-18T01:45:39.707Z,90.53
2019-02-18T01:45:40.363Z,90.91
2019-02-18T01:45:40.905Z,91.00
2019-02-18T01:45:41.505Z,91.29
2019-02-18T01:45:42.105Z,91.29
2019-02-18T01:45:42.706Z,91.29
2019-02-18T01:45:43.306Z,91.29
2019-02-18T01:45:43.905Z,91.00
2019-02-18T01:45:44.506Z,91.29
2019-02-18T01:45:45.104Z,91.00
2019-02-18T01:45:45.706Z,91.00
2019-02-18T01:45:46.304Z,91.00
2019-02-18T01:45:46.903Z,91.38
2019-02-18T01:46:47.881Z,90.72
2019-02-18T01:46:48.445Z,90.63
2019-02-18T01:46:49.046Z,90.72
2019-02-18T01:46:49.644Z,90.72
2019-02-18T01:46:50.244Z,90.81
2019-02-18T01:46:50.847Z,90.63
2019-02-18T01:46:51.443Z,90.91
2019-02-18T01:46:52.044Z,90.72
2019-02-18T01:46:52.650Z,90.81
2019-02-18T01:46:53.242Z,90.81
2019-02-18T01:46:53.842Z,90.81
2019-02-18T01:46:54.441Z,90.72
2019-02-18T01:48:33.344Z,90.15
2019-02-18T01:48:33.919Z,90.25
2019-02-18T01:48:34.518Z,90.25
2019-02-18T01:48:35.134Z,90.25
2019-02-18T01:48:35.715Z,90.25
2019-02-18T01:48:36.320Z,90.25
2019-02-18T01:48:36.914Z,90.25
2019-02-18T01:48:37.515Z,90.25
2019-02-18T01:48:38.116Z,90.25
2019-02-18T01:48:38.718Z,90.25
2019-02-18T01:48:39.314Z,90.25
2019-02-18T01:48:39.913Z,90.25
2019-02-18T01:48:40.514Z,90.25
2019-02-18T01:48:41.115Z,90.15
2019-02-18T01:48:41.714Z,90.25
2019-02-18T01:49:40.729Z,90.25
2019-02-18T01:49:41.299Z,90.25
2019-02-18T01:49:41.899Z,90.15
2019-02-18T01:49:42.496Z,90.25
2019-02-18T01:49:43.097Z,90.25
2019-02-18T01:49:43.699Z,90.25
2019-02-18T01:49:44.299Z,90.15
2019-02-18T01:49:44.898Z,90.25
2019-02-18T01:49:45.498Z,90.25
2019-02-18T01:49:46.095Z,90.25
2019-02-18T01:49:46.698Z,90.25
2019-02-18T01:49:47.294Z,90.25
2019-02-18T01:49:47.895Z,90.25
2019-02-18T01:49:48.498Z,90.25
2019-02-18T01:49:49.096Z,90.25
2019-02-18T01:49:49.693Z,90.34
2019-02-18T01:49:50.293Z,90.25
2019-02-18T01:50:44.826Z,90.15
2019-02-18T01:50:45.403Z,90.06
2019-02-18T01:50:46.001Z,89.87
2019-02-18T01:50:46.601Z,90.25
2019-02-18T01:50:47.200Z,90.15
2019-02-18T01:50:47.838Z,90.15
2019-02-18T01:50:48.399Z,89.96
2019-02-18T01:51:44.938Z,90.25
2019-02-18T01:51:45.516Z,89.87
2019-02-18T01:51:46.110Z,90.25
2019-02-18T01:52:47.099Z,90.06
2019-02-18T01:52:47.666Z,90.06
2019-02-18T01:52:48.266Z,90.06
2019-02-18T01:52:48.871Z,90.06
2019-02-18T01:52:49.467Z,90.15
2019-02-18T01:52:50.070Z,90.06
2019-02-18T01:52:50.672Z,90.06
2019-02-18T01:52:51.265Z,90.15
2019-02-18T01:52:51.865Z,90.06
2019-02-18T01:52:52.466Z,90.06
2019-02-18T01:52:53.066Z,90.15
2019-02-18T01:52:53.664Z,90.06
2019-02-18T01:53:50.172Z,90.06
2019-02-18T01:53:50.746Z,90.06
2019-02-18T01:53:51.345Z,90.15
2019-02-18T01:54:44.855Z,90.06
2019-02-18T01:54:45.429Z,90.06
2019-02-18T01:54:46.030Z,89.96
2019-02-18T01:54:46.628Z,89.96
2019-02-18T01:54:47.228Z,90.15
2019-02-18T01:54:47.828Z,89.96
2019-02-18T01:54:48.433Z,90.15
2019-02-18T01:54:49.029Z,89.87
2019-02-18T01:55:43.017Z,90.25
2019-02-18T01:55:43.590Z,90.25
2019-02-18T01:55:44.191Z,90.25
2019-02-18T01:55:44.791Z,90.34
2019-02-18T01:55:45.392Z,90.25
2019-02-18T01:55:45.994Z,90.15
2019-02-18T01:55:46.590Z,89.96
2019-02-18T02:00:38.969Z,90.72
2019-02-18T02:00:39.538Z,90.72
2019-02-18T02:00:40.140Z,90.72
2019-02-18T02:00:40.736Z,90.72
2019-02-18T02:00:41.337Z,90.72
2019-02-18T02:00:41.987Z,90.63
2019-02-18T02:00:42.536Z,90.63
2019-02-18T02:00:43.135Z,90.81
2019-02-18T02:00:43.735Z,90.81
2019-02-18T02:00:44.335Z,90.81
2019-02-18T02:00:44.935Z,90.81
2019-02-18T02:00:45.539Z,90.81
2019-02-18T02:01:39.583Z,90.81
2019-02-18T02:01:40.155Z,90.34
2019-02-18T02:01:40.753Z,90.81
2019-02-18T02:01:41.356Z,90.91
2019-02-18T02:01:41.953Z,90.72
2019-02-18T02:01:42.562Z,90.91
2019-02-18T02:01:43.152Z,90.81
2019-02-18T02:01:43.754Z,90.72
2019-02-18T02:02:48.803Z,90.81
2019-02-18T02:02:49.375Z,90.91
2019-02-18T02:02:49.974Z,90.81
2019-02-18T02:02:50.575Z,90.72
2019-02-18T02:02:51.176Z,90.63
2019-02-18T02:02:51.775Z,90.63
2019-02-18T02:02:52.379Z,90.91
2019-02-18T02:03:45.838Z,91.57
2019-02-18T02:03:46.414Z,91.48
2019-02-18T02:03:47.013Z,91.38
2019-02-18T02:03:47.613Z,91.38
2019-02-18T02:03:48.214Z,91.48
2019-02-18T02:03:48.814Z,91.57
2019-02-18T02:03:49.413Z,91.38
2019-02-18T02:03:50.014Z,91.38
2019-02-18T02:04:44.003Z,91.67
2019-02-18T02:04:44.577Z,91.67
2019-02-18T02:04:45.176Z,91.76
2019-02-18T02:04:45.779Z,91.76
2019-02-18T02:04:46.375Z,91.76
2019-02-18T02:04:46.975Z,91.76
2019-02-18T02:04:47.575Z,91.76
2019-02-18T02:05:41.550Z,91.57
2019-02-18T02:05:42.125Z,91.48
2019-02-18T02:05:42.726Z,91.76
2019-02-18T02:05:43.326Z,91.76
2019-02-18T02:05:43.926Z,91.48
2019-02-18T02:05:44.525Z,91.86
2019-02-18T02:05:45.125Z,91.57
2019-02-18T02:06:38.693Z,91.67
2019-02-18T02:06:39.268Z,91.86
2019-02-18T02:06:39.866Z,91.86
2019-02-18T02:06:40.466Z,92.24
2019-02-18T02:06:41.065Z,91.86
2019-02-18T02:06:41.667Z,92.24
2019-02-18T02:06:42.265Z,92.24
2019-02-18T02:06:42.864Z,91.67
2019-02-18T02:07:37.879Z,91.86
2019-02-18T02:07:38.453Z,92.71
2019-02-18T02:07:39.052Z,92.71
2019-02-18T02:07:39.653Z,92.71
2019-02-18T02:07:40.252Z,91.95
2019-02-18T02:07:40.855Z,92.71
2019-02-18T02:07:41.452Z,92.80
2019-02-18T02:08:35.427Z,92.90
2019-02-18T02:08:36.002Z,92.90
2019-02-18T02:08:36.601Z,92.52
2019-02-18T02:08:37.208Z,92.61
2019-02-18T02:08:37.810Z,92.61
2019-02-18T02:08:38.400Z,92.99
2019-02-18T02:08:39.001Z,92.99
2019-02-18T02:09:32.466Z,92.99
2019-02-18T02:09:33.040Z,92.80
2019-02-18T02:09:33.640Z,92.99
2019-02-18T02:09:34.240Z,92.90
2019-02-18T02:09:34.840Z,92.99
2019-02-18T02:09:35.441Z,92.90
2019-02-18T02:09:36.039Z,92.80
2019-02-18T02:09:36.641Z,92.90
2019-02-18T02:10:33.188Z,93.37
2019-02-18T02:10:33.763Z,93.56
2019-02-18T02:10:34.368Z,93.56
2019-02-18T02:11:27.873Z,93.46
2019-02-18T02:11:28.446Z,93.46
2019-02-18T02:11:29.049Z,93.37
2019-02-18T02:11:29.645Z,93.46
2019-02-18T02:11:30.248Z,93.46
2019-02-18T02:11:30.845Z,93.56
2019-02-18T02:11:31.448Z,93.46
2019-02-18T02:11:32.127Z,93.46
2019-02-18T02:12:25.523Z,93.37
2019-02-18T02:12:26.097Z,93.56
2019-02-18T02:12:26.699Z,93.37
2019-02-18T02:12:27.301Z,93.56
2019-02-18T02:12:27.898Z,93.37
2019-02-18T02:12:28.497Z,93.56
2019-02-18T02:12:29.099Z,93.56
2019-02-18T02:12:29.697Z,93.65
2019-02-18T02:13:24.199Z,93.84
2019-02-18T02:13:24.773Z,93.84
2019-02-18T02:13:25.373Z,93.84
2019-02-18T02:13:25.972Z,93.84
2019-02-18T02:13:26.599Z,93.84
2019-02-18T02:13:27.173Z,93.84
2019-02-18T02:13:27.785Z,93.46
2019-02-18T02:13:28.373Z,93.84
2019-02-18T02:14:35.366Z,94.23
2019-02-18T02:14:35.944Z,94.04
2019-02-18T02:15:31.894Z,95.26
2019-02-18T02:15:32.467Z,94.79
2019-02-18T02:15:33.065Z,94.60
2019-02-18T02:15:33.668Z,94.60
2019-02-18T02:15:34.267Z,94.89
2019-02-18T02:15:34.866Z,94.79
2019-02-18T02:16:28.929Z,94.70
2019-02-18T02:16:29.505Z,94.60
2019-02-18T02:16:30.108Z,94.32
2019-02-18T02:16:30.704Z,94.51
2019-02-18T02:16:31.304Z,94.60
2019-02-18T02:16:31.904Z,94.60
2019-02-18T02:16:32.504Z,94.32
2019-02-18T02:16:33.104Z,94.60
2019-02-18T02:17:28.133Z,95.07
2019-02-18T02:17:28.694Z,94.89
2019-02-18T02:17:29.292Z,94.98
2019-02-18T02:17:29.890Z,94.98
2019-02-18T02:17:30.491Z,95.17
2019-02-18T02:17:31.097Z,94.51
2019-02-18T02:17:31.691Z,95.07
2019-02-18T02:18:30.175Z,95.17
2019-02-18T02:18:30.746Z,95.17
2019-02-18T02:18:31.371Z,95.26
2019-02-18T02:18:31.947Z,95.26
2019-02-18T02:18:32.546Z,94.60
2019-02-18T02:18:33.146Z,95.26
2019-02-18T02:18:33.748Z,95.17
2019-02-18T02:18:34.346Z,95.17
2019-02-18T02:18:34.950Z,95.36
2019-02-18T02:18:35.544Z,95.17
2019-02-18T02:18:36.154Z,95.26
2019-02-18T02:18:36.746Z,94.79
2019-02-18T02:18:37.345Z,94.60
2019-02-18T02:18:37.946Z,95.26
2019-02-18T02:18:38.545Z,94.79
2019-02-18T02:18:39.144Z,95.17
2019-02-18T02:18:39.743Z,95.17
2019-02-18T02:19:33.767Z,94.70
2019-02-18T02:19:34.337Z,94.60
2019-02-18T02:19:34.940Z,94.70
2019-02-18T02:19:35.538Z,94.60
2019-02-18T02:19:36.137Z,94.70
2019-02-18T02:19:36.738Z,94.60
2019-02-18T02:19:37.338Z,94.70
2019-02-18T02:19:37.938Z,94.79
2019-02-18T02:20:31.417Z,95.17
2019-02-18T02:20:31.990Z,95.26
2019-02-18T02:20:32.591Z,95.26
2019-02-18T02:20:33.189Z,95.26
2019-02-18T02:20:33.789Z,95.36
2019-02-18T02:20:34.390Z,95.36
2019-02-18T02:20:34.989Z,95.36
2019-02-18T02:20:35.589Z,95.36
2019-02-18T02:21:29.577Z,94.89
2019-02-18T02:21:30.157Z,95.07
2019-02-18T02:21:30.753Z,95.17
2019-02-18T02:21:31.354Z,95.17
2019-02-18T02:21:31.954Z,95.07
2019-02-18T02:21:32.553Z,95.17
2019-02-18T02:21:33.151Z,94.89
2019-02-18T02:22:26.616Z,95.55
2019-02-18T02:22:27.191Z,95.45
2019-02-18T02:22:27.835Z,95.45
2019-02-18T02:22:28.395Z,95.45
2019-02-18T02:22:28.990Z,95.45
2019-02-18T02:22:29.591Z,95.55
2019-02-18T02:22:30.190Z,95.45
2019-02-18T02:22:30.792Z,95.07
2019-02-18T02:23:29.287Z,95.36
2019-02-18T02:23:29.860Z,95.45
2019-02-18T02:23:30.460Z,95.36
2019-02-18T02:23:31.062Z,95.45
2019-02-18T02:23:31.662Z,95.36
2019-02-18T02:23:32.260Z,95.45
2019-02-18T02:23:32.863Z,95.36
2019-02-18T02:23:33.459Z,95.45
2019-02-18T02:23:34.058Z,95.36
2019-02-18T02:23:34.661Z,95.36
2019-02-18T02:23:35.257Z,95.45
2019-02-18T02:23:35.858Z,95.45
2019-02-18T02:23:36.462Z,95.45
2019-02-18T02:23:37.057Z,95.55